MFM weather

Macau International Airport
Macau, Macau

Public forecast

Using degrees Celsius for public forecast. Weather courtesy of forecast.io.

Current aviation weather report (METAR) for Macau International Airport

Retrieved 2019/10/24 04:30 UTC (0 seconds ago):

VMMC 240430Z 03006KT 320V080 9999 FEW025 28/21 Q1015 NOSIG

Aviation forecast (TAF) for Macau International Airport

Retrieved 2019-10-24 00:21 UTC (4 hours ago):

TAF VMMC 232302Z 2400/2506 04012KT 9999 FEW035 TEMPO 2408/2418 11008KT